createdAt,value
2018-12-10T00:00:19.807Z,997.47
2018-12-10T00:01:19.732Z,997.53
2018-12-10T00:02:19.645Z,997.54
2018-12-10T00:03:19.570Z,997.56
2018-12-10T00:04:19.470Z,997.63
2018-12-10T00:05:19.400Z,997.60
2018-12-10T00:06:19.308Z,997.62
2018-12-10T00:07:19.223Z,997.63
2018-12-10T00:08:19.132Z,997.64
2018-12-10T00:09:19.071Z,997.73
2018-12-10T00:10:18.971Z,997.75
2018-12-10T00:11:18.883Z,997.65
2018-12-10T00:12:18.803Z,997.68
2018-12-10T00:13:18.709Z,997.75
2018-12-10T00:14:18.634Z,997.80
2018-12-10T00:15:18.547Z,997.80
2018-12-10T00:16:18.471Z,997.79
2018-12-10T00:17:18.371Z,997.79
2018-12-10T00:18:18.304Z,997.79
2018-12-10T00:19:18.210Z,997.85
2018-12-10T00:20:18.122Z,997.77
2018-12-10T00:21:18.036Z,997.82
2018-12-10T00:22:17.972Z,997.89
2018-12-10T00:23:17.872Z,997.95
2018-12-10T00:24:17.786Z,997.86
2018-12-10T00:25:17.701Z,997.95
2018-12-10T00:26:17.623Z,997.95
2018-12-10T00:27:17.535Z,997.98
2018-12-10T00:28:17.448Z,997.84
2018-12-10T00:29:17.360Z,997.96
2018-12-10T00:30:17.285Z,997.98
2018-12-10T00:31:17.199Z,997.94
2018-12-10T00:32:17.110Z,997.95
2018-12-10T00:33:17.023Z,998.07
2018-12-10T00:34:16.948Z,998.04
2018-12-10T00:35:16.861Z,998.03
2018-12-10T00:36:16.773Z,998.08
2018-12-10T00:37:16.685Z,998.10
2018-12-10T00:38:16.600Z,998.08
2018-12-10T00:39:16.524Z,998.11
2018-12-10T00:40:16.437Z,998.20
2018-12-10T00:41:16.354Z,998.14
2018-12-10T00:42:16.262Z,998.27
2018-12-10T00:43:16.186Z,998.20
2018-12-10T00:44:16.100Z,998.23
2018-12-10T00:45:16.013Z,998.31
2018-12-10T00:46:15.925Z,998.33
2018-12-10T00:47:15.839Z,998.29
2018-12-10T00:48:15.762Z,998.30
2018-12-10T00:49:15.676Z,998.32
2018-12-10T00:50:15.587Z,998.50
2018-12-10T00:51:15.503Z,998.41
2018-12-10T00:52:15.425Z,998.45
2018-12-10T00:53:15.337Z,998.38
2018-12-10T00:54:15.251Z,998.45
2018-12-10T00:55:15.163Z,998.54
2018-12-10T00:56:15.088Z,998.58
2018-12-10T00:57:15.008Z,998.54
2018-12-10T00:58:14.913Z,998.56
2018-12-10T00:59:14.827Z,998.52
2018-12-10T01:00:14.752Z,998.56
2018-12-10T01:01:14.666Z,998.59
2018-12-10T01:02:14.578Z,998.65
2018-12-10T01:03:14.488Z,998.63
2018-12-10T01:04:14.413Z,998.77
2018-12-10T01:05:14.331Z,998.70
2018-12-10T01:06:14.240Z,998.72
2018-12-10T01:07:14.153Z,998.62
2018-12-10T01:08:14.065Z,998.77
2018-12-10T01:09:14.002Z,998.94
2018-12-10T01:10:13.902Z,998.77
2018-12-10T01:11:13.815Z,998.84
2018-12-10T01:12:13.728Z,998.83
2018-12-10T01:13:13.654Z,998.80
2018-12-10T01:14:13.566Z,998.83
2018-12-10T01:15:13.480Z,998.89
2018-12-10T01:16:13.404Z,998.86
2018-12-10T01:17:13.315Z,998.96
2018-12-10T01:18:13.229Z,998.93
2018-12-10T01:19:13.140Z,998.93
2018-12-10T01:20:13.066Z,998.95
2018-12-10T01:21:12.967Z,998.98
2018-12-10T01:22:12.903Z,998.96
2018-12-10T01:23:12.806Z,999.05
2018-12-10T01:24:12.717Z,998.99
2018-12-10T01:25:12.629Z,999.06
2018-12-10T01:26:12.554Z,999.06
2018-12-10T01:27:12.467Z,999.12
2018-12-10T01:28:12.381Z,999.08
2018-12-10T01:29:12.291Z,999.20
2018-12-10T01:30:12.217Z,999.12
2018-12-10T01:31:12.133Z,999.18
2018-12-10T01:32:12.042Z,999.13
2018-12-10T01:33:11.955Z,999.14
2018-12-10T01:34:11.869Z,999.27
2018-12-10T01:35:11.794Z,999.20
2018-12-10T01:36:11.711Z,999.23
2018-12-10T01:37:11.617Z,999.28
2018-12-10T01:38:11.537Z,999.21
2018-12-10T01:39:11.456Z,999.22
2018-12-10T01:40:11.368Z,999.18
2018-12-10T01:41:11.281Z,999.25
2018-12-10T01:42:11.193Z,999.20
2018-12-10T01:43:11.135Z,999.30
2018-12-10T01:44:11.032Z,999.26
2018-12-10T01:45:10.945Z,999.30
2018-12-10T01:46:10.858Z,999.33
2018-12-10T01:47:10.769Z,999.35
2018-12-10T01:48:10.695Z,999.32
2018-12-10T01:49:10.607Z,999.41
2018-12-10T01:50:10.519Z,999.41
2018-12-10T01:51:10.432Z,999.36
2018-12-10T01:52:10.347Z,999.31
2018-12-10T01:53:10.270Z,999.37
2018-12-10T01:54:10.183Z,999.38
2018-12-10T01:55:10.094Z,999.44
2018-12-10T01:56:10.008Z,999.36
2018-12-10T01:57:09.934Z,999.45
2018-12-10T01:58:09.846Z,999.44
2018-12-10T01:59:09.758Z,999.48
2018-12-10T02:00:09.670Z,999.50
2018-12-10T02:01:09.585Z,999.53
2018-12-10T02:02:09.510Z,999.56
2018-12-10T02:03:09.424Z,999.63
2018-12-10T02:04:09.334Z,999.54
2018-12-10T02:05:09.247Z,999.68
2018-12-10T02:06:09.172Z,999.61
2018-12-10T02:07:09.086Z,999.51
2018-12-10T02:08:08.997Z,999.63
2018-12-10T02:09:08.910Z,999.65
2018-12-10T02:10:08.824Z,999.65
2018-12-10T02:11:08.760Z,999.64
2018-12-10T02:12:08.660Z,999.54
2018-12-10T02:13:08.574Z,999.65
2018-12-10T02:14:08.489Z,999.72
2018-12-10T02:15:08.398Z,999.76
2018-12-10T02:16:08.322Z,999.71
2018-12-10T02:17:08.235Z,999.75
2018-12-10T02:18:08.161Z,999.78
2018-12-10T02:19:08.061Z,999.73
2018-12-10T02:20:07.976Z,999.77
2018-12-10T02:21:07.903Z,999.79
2018-12-10T02:22:07.810Z,999.79
2018-12-10T02:23:07.723Z,999.73
2018-12-10T02:24:07.636Z,999.77
2018-12-10T02:25:07.561Z,999.73
2018-12-10T02:26:07.474Z,999.82
2018-12-10T02:27:07.392Z,999.87
2018-12-10T02:28:07.299Z,999.81
2018-12-10T02:29:07.213Z,999.85
2018-12-10T02:30:07.137Z,999.82
2018-12-10T02:31:07.065Z,999.82
2018-12-10T02:32:06.963Z,999.80
2018-12-10T02:33:06.875Z,999.76
2018-12-10T02:34:06.801Z,999.81
2018-12-10T02:35:06.715Z,999.87
2018-12-10T02:36:06.624Z,999.82
2018-12-10T02:37:06.538Z,999.90
2018-12-10T02:38:06.468Z,999.89
2018-12-10T02:39:06.363Z,999.81
2018-12-10T02:40:06.293Z,999.85
2018-12-10T02:41:06.202Z,999.86
2018-12-10T02:42:06.114Z,999.96
2018-12-10T02:43:06.027Z,999.96
2018-12-10T02:44:05.938Z,1000.00
2018-12-10T02:45:05.865Z,1000.07
2018-12-10T02:46:05.777Z,1000.07
2018-12-10T02:47:05.690Z,1000.03
2018-12-10T02:48:05.601Z,1000.00
2018-12-10T02:49:05.526Z,1000.02
2018-12-10T02:50:05.441Z,1000.08
2018-12-10T02:51:05.370Z,1000.12
2018-12-10T02:52:05.266Z,1000.02
2018-12-10T02:53:05.179Z,1000.12
2018-12-10T02:54:05.102Z,1000.12
2018-12-10T02:55:05.015Z,1000.07
2018-12-10T02:56:04.928Z,1000.12
2018-12-10T02:57:04.840Z,1000.06
2018-12-10T02:58:04.767Z,1000.13
2018-12-10T02:59:04.682Z,1000.08
2018-12-10T03:00:04.598Z,1000.09
2018-12-10T03:01:04.503Z,1000.10
2018-12-10T03:02:04.418Z,1000.10
2018-12-10T03:03:04.329Z,1000.13
2018-12-10T03:04:04.255Z,1000.07
2018-12-10T03:05:04.167Z,999.99
2018-12-10T03:06:04.079Z,1000.01
2018-12-10T03:07:03.996Z,1000.10
2018-12-10T03:08:03.904Z,1000.07
2018-12-10T03:09:03.832Z,1000.11
2018-12-10T03:10:03.742Z,1000.18
2018-12-10T03:11:03.668Z,1000.15
2018-12-10T03:12:03.569Z,1000.23
2018-12-10T03:13:03.481Z,1000.20
2018-12-10T03:14:03.416Z,1000.19
2018-12-10T03:15:03.324Z,1000.24
2018-12-10T03:16:03.229Z,1000.24
2018-12-10T03:17:03.145Z,1000.24
2018-12-10T03:18:03.072Z,1000.21
2018-12-10T03:19:02.979Z,1000.24
2018-12-10T03:20:02.894Z,1000.23
2018-12-10T03:21:02.806Z,1000.24
2018-12-10T03:22:02.717Z,1000.26
2018-12-10T03:23:02.640Z,1000.20
2018-12-10T03:24:02.593Z,1000.30
2018-12-10T03:25:02.470Z,1000.33
2018-12-10T03:26:02.380Z,1000.39
2018-12-10T03:27:02.295Z,1000.43
2018-12-10T03:28:02.207Z,1000.52
2018-12-10T03:29:02.130Z,1000.51
2018-12-10T03:30:02.060Z,1000.43
2018-12-10T03:31:01.962Z,1000.56
2018-12-10T03:32:01.871Z,1000.52
2018-12-10T03:33:01.797Z,1000.60
2018-12-10T03:34:01.706Z,1000.60
2018-12-10T03:35:01.620Z,1000.50
2018-12-10T03:36:01.532Z,1000.65
2018-12-10T03:37:01.456Z,1000.66
2018-12-10T03:38:01.371Z,1000.61
2018-12-10T03:39:01.294Z,1000.58
2018-12-10T03:40:01.195Z,1000.64
2018-12-10T03:41:01.117Z,1000.61
2018-12-10T03:42:01.020Z,1000.69
2018-12-10T03:43:00.944Z,1000.66
2018-12-10T03:44:00.859Z,1000.71
2018-12-10T03:45:00.775Z,1000.75
2018-12-10T03:46:00.686Z,1000.75
2018-12-10T03:47:00.595Z,1000.76
2018-12-10T03:48:00.522Z,1000.75
2018-12-10T03:49:00.432Z,1000.73
2018-12-10T03:50:00.346Z,1000.78
2018-12-10T03:51:00.259Z,1000.78
2018-12-10T03:52:00.177Z,1000.85
2018-12-10T03:53:00.095Z,1000.83
2018-12-10T03:54:00.008Z,1000.85
2018-12-10T03:54:59.921Z,1000.88
2018-12-10T03:55:59.848Z,1000.88
2018-12-10T03:56:59.776Z,1000.91
2018-12-10T03:57:59.678Z,1001.04
2018-12-10T03:58:59.584Z,1000.96
2018-12-10T03:59:59.498Z,1000.91
2018-12-10T04:00:59.421Z,1001.06
2018-12-10T04:01:59.335Z,1000.87
2018-12-10T04:02:59.248Z,1000.94
2018-12-10T04:03:59.159Z,1000.95
2018-12-10T04:04:59.073Z,1001.04
2018-12-10T04:05:58.985Z,1001.08
2018-12-10T04:06:58.913Z,1001.10
2018-12-10T04:07:58.825Z,1001.15
2018-12-10T04:08:58.900Z,1001.12
2018-12-10T04:09:58.651Z,1001.13
2018-12-10T04:10:58.572Z,1001.26
2018-12-10T04:11:58.487Z,1001.16
2018-12-10T04:12:58.399Z,1001.17
2018-12-10T04:13:58.310Z,1001.25
2018-12-10T04:14:58.249Z,1001.35
2018-12-10T04:15:58.137Z,1001.29
2018-12-10T04:16:58.074Z,1001.23
2018-12-10T04:17:57.975Z,1001.20
2018-12-10T04:18:57.886Z,1001.23
2018-12-10T04:19:57.800Z,1001.30
2018-12-10T04:20:57.728Z,1001.27
2018-12-10T04:21:57.637Z,1001.29
2018-12-10T04:22:57.551Z,1001.28
2018-12-10T04:23:57.477Z,1001.24
2018-12-10T04:24:57.376Z,1001.31
2018-12-10T04:25:57.300Z,1001.30
2018-12-10T04:26:57.212Z,1001.24
2018-12-10T04:27:57.131Z,1001.30
2018-12-10T04:28:57.038Z,1001.31
2018-12-10T04:29:56.979Z,1001.33
2018-12-10T04:30:56.882Z,1001.27
2018-12-10T04:31:56.788Z,1001.21
2018-12-10T04:32:56.702Z,1001.33
2018-12-10T04:33:56.638Z,1001.31
2018-12-10T04:34:56.540Z,1001.37
2018-12-10T04:35:56.455Z,1001.30
2018-12-10T04:36:56.363Z,1001.33
2018-12-10T04:37:56.277Z,1001.36
2018-12-10T04:38:56.191Z,1001.34
2018-12-10T04:39:56.128Z,1001.35
2018-12-10T04:40:56.040Z,1001.38
2018-12-10T04:41:55.939Z,1001.45
2018-12-10T04:42:55.856Z,1001.51
2018-12-10T04:43:55.764Z,1001.40
2018-12-10T04:44:55.691Z,1001.38
2018-12-10T04:45:55.602Z,1001.49
2018-12-10T04:46:55.529Z,1001.52
2018-12-10T04:47:55.434Z,1001.49
2018-12-10T04:48:55.341Z,1001.48
2018-12-10T04:49:55.264Z,1001.62
2018-12-10T04:50:55.178Z,1001.58
2018-12-10T04:51:55.092Z,1001.60
2018-12-10T04:52:55.008Z,1001.53
2018-12-10T04:53:54.929Z,1001.57
2018-12-10T04:54:54.841Z,1001.51
2018-12-10T04:55:54.756Z,1001.66
2018-12-10T04:56:54.665Z,1001.60
2018-12-10T04:57:54.579Z,1001.69
2018-12-10T04:58:54.495Z,1001.66
2018-12-10T04:59:54.416Z,1001.58
2018-12-10T05:00:54.331Z,1001.69
2018-12-10T05:01:54.254Z,1001.59
2018-12-10T05:02:54.154Z,1001.63
2018-12-10T05:03:54.079Z,1001.70
2018-12-10T05:04:53.991Z,1001.72
2018-12-10T05:05:53.906Z,1001.73
2018-12-10T05:06:53.851Z,1001.77
2018-12-10T05:07:53.731Z,1001.81
2018-12-10T05:08:53.655Z,1001.80
2018-12-10T05:09:53.571Z,1001.75
2018-12-10T05:10:53.480Z,1001.85
2018-12-10T05:11:53.392Z,1001.84
2018-12-10T05:12:53.310Z,1001.92
2018-12-10T05:13:53.233Z,1001.95
2018-12-10T05:14:53.146Z,1001.93
2018-12-10T05:15:53.056Z,1001.87
2018-12-10T05:16:52.971Z,1001.91
2018-12-10T05:17:52.882Z,1001.89
2018-12-10T05:18:52.807Z,1001.86
2018-12-10T05:19:52.718Z,1002.05
2018-12-10T05:20:52.633Z,1002.01
2018-12-10T05:21:52.543Z,1002.01
2018-12-10T05:22:52.458Z,1002.02
2018-12-10T05:23:52.383Z,1002.03
2018-12-10T05:24:52.295Z,1002.07
2018-12-10T05:25:52.207Z,1002.04
2018-12-10T05:26:52.121Z,1002.05
2018-12-10T05:27:52.034Z,1002.02
2018-12-10T05:28:51.958Z,1002.09
2018-12-10T05:29:51.871Z,1001.91
2018-12-10T05:30:51.784Z,1002.07
2018-12-10T05:31:51.708Z,1002.04
2018-12-10T05:32:51.620Z,1002.07
2018-12-10T05:33:51.537Z,1002.05
2018-12-10T05:34:51.445Z,1002.08
2018-12-10T05:35:51.360Z,1002.12
2018-12-10T05:36:51.270Z,1002.13
2018-12-10T05:37:51.196Z,1002.13
2018-12-10T05:38:51.110Z,1002.15
2018-12-10T05:39:51.027Z,1002.11
2018-12-10T05:40:50.935Z,1002.19
2018-12-10T05:41:50.846Z,1002.08
2018-12-10T05:42:50.773Z,1002.19
2018-12-10T05:43:50.685Z,1002.27
2018-12-10T05:44:50.596Z,1002.15
2018-12-10T05:45:50.510Z,1002.15
2018-12-10T05:46:50.437Z,1002.17
2018-12-10T05:47:50.351Z,1002.25
2018-12-10T05:48:50.260Z,1002.20
2018-12-10T05:49:50.172Z,1002.15
2018-12-10T05:50:50.086Z,1002.27
2018-12-10T05:51:49.997Z,1002.25
2018-12-10T05:52:50.551Z,1002.28
2018-12-10T05:53:49.839Z,1002.24
2018-12-10T05:54:49.748Z,1002.28
2018-12-10T05:55:49.661Z,1002.27
2018-12-10T05:56:49.574Z,1002.28
2018-12-10T05:57:49.498Z,1002.37
2018-12-10T05:58:49.412Z,1002.30
2018-12-10T05:59:49.337Z,1002.35
2018-12-10T06:00:49.236Z,1002.35
2018-12-10T06:01:49.149Z,1002.38
2018-12-10T06:02:49.074Z,1002.39
2018-12-10T06:03:48.987Z,1002.38
2018-12-10T06:04:48.899Z,1002.45
2018-12-10T06:05:48.812Z,1002.43
2018-12-10T06:06:48.841Z,1002.44
2018-12-10T06:07:48.649Z,1002.40
2018-12-10T06:08:48.565Z,1002.48
2018-12-10T06:09:48.488Z,1002.54
2018-12-10T06:10:48.388Z,1002.47
2018-12-10T06:11:48.316Z,1002.44
2018-12-10T06:12:48.224Z,1002.42
2018-12-10T06:13:48.137Z,1002.42
2018-12-10T06:14:48.050Z,1002.46
2018-12-10T06:15:47.963Z,1002.60
2018-12-10T06:16:47.888Z,1002.51
2018-12-10T06:17:47.800Z,1002.59
2018-12-10T06:18:47.713Z,1002.66
2018-12-10T06:19:47.625Z,1002.49
2018-12-10T06:20:47.538Z,1002.56
2018-12-10T06:21:47.463Z,1002.54
2018-12-10T06:22:47.397Z,1002.67
2018-12-10T06:23:47.288Z,1002.69
2018-12-10T06:24:47.201Z,1002.60
2018-12-10T06:25:47.126Z,1002.60
2018-12-10T06:26:47.038Z,1002.65
2018-12-10T06:27:46.951Z,1002.73
2018-12-10T06:28:46.870Z,1002.65
2018-12-10T06:29:46.780Z,1002.68
2018-12-10T06:30:46.689Z,1002.69
2018-12-10T06:31:46.615Z,1002.77
2018-12-10T06:32:46.527Z,1002.76
2018-12-10T06:33:46.439Z,1002.76
2018-12-10T06:34:46.352Z,1002.77
2018-12-10T06:35:46.265Z,1002.81
2018-12-10T06:36:46.190Z,1002.78
2018-12-10T06:37:46.103Z,1002.76
2018-12-10T06:38:46.015Z,1002.86
2018-12-10T06:39:45.927Z,1002.78
2018-12-10T06:40:45.840Z,1002.79
2018-12-10T06:41:45.765Z,1002.82
2018-12-10T06:42:45.683Z,1002.76
2018-12-10T06:43:45.591Z,1002.76
2018-12-10T06:44:45.504Z,1002.81
2018-12-10T06:45:45.427Z,1002.86
2018-12-10T06:46:45.342Z,1002.92
2018-12-10T06:47:45.253Z,1002.91
2018-12-10T06:48:45.166Z,1002.97
2018-12-10T06:49:45.078Z,1003.03
2018-12-10T06:50:44.991Z,1002.98
2018-12-10T06:51:44.917Z,1003.06
2018-12-10T06:52:44.828Z,1003.04
2018-12-10T06:53:44.742Z,1003.00
2018-12-10T06:54:44.667Z,1003.08
2018-12-10T06:55:44.567Z,1003.04
2018-12-10T06:56:44.495Z,1003.28
2018-12-10T06:57:44.404Z,1003.21
2018-12-10T06:58:44.317Z,1003.32
2018-12-10T06:59:44.229Z,1003.28
2018-12-10T07:00:44.142Z,1003.36
2018-12-10T07:01:44.067Z,1003.32
2018-12-10T07:02:43.979Z,1003.33
2018-12-10T07:03:43.894Z,1003.40
2018-12-10T07:04:43.805Z,1003.42
2018-12-10T07:05:43.718Z,1003.38
2018-12-10T07:06:43.630Z,1003.36
2018-12-10T07:07:43.556Z,1003.42
2018-12-10T07:08:43.468Z,1003.34
2018-12-10T07:09:43.382Z,1003.35
2018-12-10T07:10:43.294Z,1003.42
2018-12-10T07:11:43.207Z,1003.40
2018-12-10T07:12:43.130Z,1003.45
2018-12-10T07:13:43.045Z,1003.33
2018-12-10T07:14:42.956Z,1003.43
2018-12-10T07:15:42.869Z,1003.41
2018-12-10T07:16:42.784Z,1003.39
2018-12-10T07:17:42.708Z,1003.31
2018-12-10T07:18:42.619Z,1003.44
2018-12-10T07:19:42.531Z,1003.38
2018-12-10T07:20:42.444Z,1003.43
2018-12-10T07:21:42.357Z,1003.45
2018-12-10T07:22:42.269Z,1003.49
2018-12-10T07:23:42.195Z,1003.51
2018-12-10T07:24:42.108Z,1003.53
2018-12-10T07:25:42.019Z,1003.55
2018-12-10T07:26:41.932Z,1003.53
2018-12-10T07:27:41.845Z,1003.53
2018-12-10T07:28:41.771Z,1003.57
2018-12-10T07:29:41.685Z,1003.47
2018-12-10T07:30:41.782Z,1003.56
2018-12-10T07:31:41.507Z,1003.65
2018-12-10T07:32:41.421Z,1003.61
2018-12-10T07:33:41.334Z,1003.60
2018-12-10T07:34:41.464Z,1003.58
2018-12-10T07:35:41.172Z,1003.56
2018-12-10T07:36:41.083Z,1003.48
2018-12-10T07:37:40.997Z,1003.56
2018-12-10T07:38:40.908Z,1003.61
2018-12-10T07:39:40.833Z,1003.60
2018-12-10T07:40:40.746Z,1003.66
2018-12-10T07:41:40.664Z,1003.62
2018-12-10T07:42:40.572Z,1003.59
2018-12-10T07:43:40.484Z,1003.65
2018-12-10T07:44:40.398Z,1003.65
2018-12-10T07:45:40.322Z,1003.68
2018-12-10T07:46:40.238Z,1003.66
2018-12-10T07:47:40.147Z,1003.67
2018-12-10T07:48:40.060Z,1003.57
2018-12-10T07:49:39.973Z,1003.60
2018-12-10T07:50:39.900Z,1003.61
2018-12-10T07:51:39.810Z,1003.64
2018-12-10T07:52:39.723Z,1003.70
2018-12-10T07:53:39.635Z,1003.74
2018-12-10T07:54:39.548Z,1003.66
2018-12-10T07:55:39.461Z,1003.71
2018-12-10T07:56:39.387Z,1003.68
2018-12-10T07:57:39.304Z,1003.74
2018-12-10T07:58:39.211Z,1003.77
2018-12-10T07:59:39.126Z,1003.78
2018-12-10T08:00:39.037Z,1003.65
2018-12-10T08:01:38.963Z,1003.76
2018-12-10T08:02:38.873Z,1003.68
2018-12-10T08:03:38.799Z,1003.75
2018-12-10T08:04:38.700Z,1003.78
2018-12-10T08:05:38.611Z,1003.79
2018-12-10T08:06:38.525Z,1003.73
2018-12-10T08:07:38.450Z,1003.71
2018-12-10T08:08:38.362Z,1003.88
2018-12-10T08:09:38.275Z,1003.79
2018-12-10T08:10:38.187Z,1003.74
2018-12-10T08:11:38.100Z,1003.82
2018-12-10T08:12:38.029Z,1003.71
2018-12-10T08:13:37.951Z,1003.75
2018-12-10T08:14:37.850Z,1003.73
2018-12-10T08:15:37.762Z,1003.76
2018-12-10T08:16:37.679Z,1003.82
2018-12-10T08:17:37.600Z,1003.78
2018-12-10T08:18:37.514Z,1003.74
2018-12-10T08:19:37.426Z,1003.76
2018-12-10T08:20:37.338Z,1003.81
2018-12-10T08:21:37.253Z,1003.71
2018-12-10T08:22:37.176Z,1003.70
2018-12-10T08:23:37.088Z,1003.84
2018-12-10T08:24:37.002Z,1003.80
2018-12-10T08:25:36.914Z,1003.81
2018-12-10T08:26:36.839Z,1003.97
2018-12-10T08:27:36.754Z,1003.89
2018-12-10T08:28:36.676Z,1003.88
2018-12-10T08:29:36.577Z,1003.90
2018-12-10T08:30:36.501Z,1003.85
2018-12-10T08:31:36.406Z,1003.90
2018-12-10T08:32:36.328Z,1003.97
2018-12-10T08:33:36.243Z,1004.02
2018-12-10T08:35:40.861Z,1003.98
2018-12-10T08:35:46.103Z,1003.93
2018-12-10T08:36:35.989Z,1003.95
2018-12-10T08:37:35.903Z,1003.96
2018-12-10T08:38:35.827Z,1004.02
2018-12-10T08:39:35.730Z,1003.97
2018-12-10T08:40:35.639Z,1004.03
2018-12-10T08:41:35.565Z,1003.97
2018-12-10T08:42:35.478Z,1003.96
2018-12-10T08:43:35.390Z,1003.97
2018-12-10T08:44:35.303Z,1003.98
2018-12-10T08:45:35.218Z,1004.04
2018-12-10T08:46:35.140Z,1004.04
2018-12-10T08:47:35.055Z,1003.91
2018-12-10T08:48:34.965Z,1004.07
2018-12-10T08:49:34.879Z,1004.20
2018-12-10T08:50:34.798Z,1004.11
2018-12-10T08:51:34.731Z,1003.99
2018-12-10T08:52:34.629Z,1004.16
2018-12-10T08:53:34.542Z,1004.13
2018-12-10T08:54:34.455Z,1004.05
2018-12-10T08:55:34.368Z,1004.09
2018-12-10T08:56:34.457Z,1004.07
2018-12-10T08:57:34.204Z,1004.11
2018-12-10T08:58:34.118Z,1004.14
2018-12-10T08:59:34.030Z,1004.19
2018-12-10T09:00:33.943Z,1004.11
2018-12-10T09:01:33.867Z,1004.10
2018-12-10T09:02:33.780Z,1004.13
2018-12-10T09:03:33.693Z,1004.06
2018-12-10T09:04:33.609Z,1004.09
2018-12-10T09:05:33.530Z,1004.15
2018-12-10T09:06:33.443Z,1004.25
2018-12-10T09:07:33.356Z,1004.09
2018-12-10T09:08:33.276Z,1004.09
2018-12-10T09:09:33.183Z,1004.20
2018-12-10T09:10:34.723Z,1004.17
2018-12-10T09:11:33.018Z,1004.23
2018-12-10T09:12:32.931Z,1004.20
2018-12-10T09:13:32.856Z,1004.19
2018-12-10T09:14:32.758Z,1004.14
2018-12-10T09:15:32.682Z,1004.18
2018-12-10T09:16:32.595Z,1004.22
2018-12-10T09:17:32.507Z,1004.19
2018-12-10T09:18:32.419Z,1004.22
2018-12-10T09:19:32.332Z,1004.21
2018-12-10T09:20:32.257Z,1004.29
2018-12-10T09:21:32.169Z,1004.28
2018-12-10T09:22:32.083Z,1004.26
2018-12-10T09:23:32.007Z,1004.25
2018-12-10T09:24:31.919Z,1004.26
2018-12-10T09:25:31.838Z,1004.22
2018-12-10T09:26:31.744Z,1004.25
2018-12-10T09:27:31.658Z,1004.24
2018-12-10T09:28:31.569Z,1004.26
2018-12-10T09:29:31.539Z,1004.34
2018-12-10T09:30:31.411Z,1004.42
2018-12-10T09:31:31.320Z,1004.45
2018-12-10T09:32:31.235Z,1004.34
2018-12-10T09:33:31.145Z,1004.23
2018-12-10T09:34:31.071Z,1004.38
2018-12-10T09:35:30.984Z,1004.39
2018-12-10T09:36:30.895Z,1004.46
2018-12-10T09:37:30.809Z,1004.49
2018-12-10T09:38:30.722Z,1004.44
2018-12-10T09:39:30.646Z,1004.48
2018-12-10T09:40:30.558Z,1004.64
2018-12-10T09:41:30.472Z,1004.44
2018-12-10T09:42:30.395Z,1004.46
2018-12-10T09:43:30.310Z,1004.52
2018-12-10T09:44:30.223Z,1004.44
2018-12-10T09:45:30.134Z,1004.65
2018-12-10T09:46:30.051Z,1004.70
2018-12-10T09:47:29.972Z,1004.71
2018-12-10T09:48:29.886Z,1004.74
2018-12-10T09:49:29.796Z,1004.68
2018-12-10T09:50:29.709Z,1004.71
2018-12-10T09:51:29.638Z,1004.59
2018-12-10T09:52:29.557Z,1004.67
2018-12-10T09:53:29.460Z,1004.58
2018-12-10T09:54:29.372Z,1004.59
2018-12-10T09:55:29.286Z,1004.65
2018-12-10T09:56:29.215Z,1004.66
2018-12-10T09:57:29.135Z,1004.63
2018-12-10T09:58:29.035Z,1004.75
2018-12-10T09:59:28.948Z,1004.65
2018-12-10T10:00:28.874Z,1004.60
2018-12-10T10:01:28.787Z,1004.83
2018-12-10T10:02:28.698Z,1004.65
2018-12-10T10:03:28.612Z,1004.57
2018-12-10T10:04:28.540Z,1004.78
2018-12-10T10:05:28.485Z,1004.76
2018-12-10T10:06:28.362Z,1004.82
2018-12-10T10:07:28.521Z,1004.76
2018-12-10T10:08:28.198Z,1004.77
2018-12-10T10:09:28.115Z,1004.87
2018-12-10T10:10:28.026Z,1004.93
2018-12-10T10:11:27.938Z,1004.96
2018-12-10T10:12:27.864Z,1004.88
2018-12-10T10:13:27.775Z,1004.80
2018-12-10T10:14:27.688Z,1004.77
2018-12-10T10:15:27.724Z,1004.75
2018-12-10T10:16:27.526Z,1004.83
2018-12-10T10:17:27.439Z,1004.79
2018-12-10T10:18:27.352Z,1004.80
2018-12-10T10:19:27.263Z,1004.83
2018-12-10T10:20:27.189Z,1004.85
2018-12-10T10:21:27.113Z,1004.77
2018-12-10T10:22:27.013Z,1004.77
2018-12-10T10:23:26.925Z,1004.80
2018-12-10T10:24:26.852Z,1004.78
2018-12-10T10:25:26.764Z,1004.82
2018-12-10T10:26:26.676Z,1004.78
2018-12-10T10:27:26.589Z,1004.83
2018-12-10T10:28:26.514Z,1004.82
2018-12-10T10:29:26.426Z,1004.90
2018-12-10T10:30:26.342Z,1004.85
2018-12-10T10:31:26.265Z,1004.86
2018-12-10T10:32:26.176Z,1004.85
2018-12-10T10:33:32.370Z,1004.83
2018-12-10T10:34:26.001Z,1004.88
2018-12-10T10:35:25.927Z,1004.90
2018-12-10T10:36:25.841Z,1004.83
2018-12-10T10:37:25.753Z,1004.87
2018-12-10T10:38:25.678Z,1004.81
2018-12-10T10:39:25.609Z,1004.80
2018-12-10T10:40:25.502Z,1004.90
2018-12-10T10:41:31.222Z,1004.90
2018-12-10T10:42:25.341Z,1004.86
2018-12-10T10:43:25.254Z,1004.95
2018-12-10T10:44:25.180Z,1004.97
2018-12-10T10:45:25.091Z,1004.93
2018-12-10T10:46:25.002Z,1004.89
2018-12-10T10:47:24.917Z,1004.99
2018-12-10T10:48:24.841Z,1004.95
2018-12-10T10:49:24.755Z,1004.96
2018-12-10T10:50:24.667Z,1004.93
2018-12-10T10:51:24.593Z,1004.95
2018-12-10T10:52:24.504Z,1004.77
2018-12-10T10:53:24.429Z,1004.91
2018-12-10T10:54:24.342Z,1004.92
2018-12-10T10:55:24.254Z,1004.88
2018-12-10T10:56:24.195Z,1004.96
2018-12-10T10:57:24.094Z,1004.83
2018-12-10T10:58:24.005Z,1004.92
2018-12-10T10:59:23.935Z,1004.88
2018-12-10T11:00:23.843Z,1004.79
2018-12-10T11:01:23.755Z,1004.81
2018-12-10T11:02:23.681Z,1004.88
2018-12-10T11:03:23.595Z,1004.87
2018-12-10T11:04:23.507Z,1004.90
2018-12-10T11:05:23.430Z,1004.98
2018-12-10T11:06:23.343Z,1005.02
2018-12-10T11:07:23.257Z,1004.96
2018-12-10T11:08:23.181Z,1005.02
2018-12-10T11:09:23.094Z,1004.96
2018-12-10T11:10:23.007Z,1004.99
2018-12-10T11:11:22.944Z,1004.93
2018-12-10T11:12:22.844Z,1004.88
2018-12-10T11:13:22.759Z,1004.92
2018-12-10T11:14:22.681Z,1004.90
2018-12-10T11:15:22.595Z,1004.91
2018-12-10T11:16:22.507Z,1004.89
2018-12-10T11:17:22.433Z,1004.94
2018-12-10T11:18:22.345Z,1004.89
2018-12-10T11:19:22.257Z,1004.91
2018-12-10T11:20:22.182Z,1004.85
2018-12-10T11:21:22.095Z,1004.91
2018-12-10T11:22:22.007Z,1004.88
2018-12-10T11:23:21.921Z,1004.95
2018-12-10T11:24:21.846Z,1004.90
2018-12-10T11:25:21.758Z,1004.87
2018-12-10T11:26:21.671Z,1004.86
2018-12-10T11:27:21.596Z,1004.81
2018-12-10T11:28:21.507Z,1004.85
2018-12-10T11:29:21.443Z,1004.85
2018-12-10T11:30:21.333Z,1004.71
2018-12-10T11:31:21.272Z,1004.80
2018-12-10T11:32:21.172Z,1004.78
2018-12-10T11:33:21.085Z,1004.90
2018-12-10T11:34:20.997Z,1004.81
2018-12-10T11:35:20.922Z,1004.90
2018-12-10T11:36:20.834Z,1004.77
2018-12-10T11:37:20.813Z,1004.85
2018-12-10T11:38:20.661Z,1004.89
2018-12-10T11:39:20.584Z,1004.87
2018-12-10T11:40:20.498Z,1004.99
2018-12-10T11:41:20.423Z,1004.92
2018-12-10T11:42:20.334Z,1004.90
2018-12-10T11:43:20.254Z,1004.89
2018-12-10T11:44:20.161Z,1004.88
2018-12-10T11:45:20.073Z,1004.88
2018-12-10T11:46:19.997Z,1004.87
2018-12-10T11:47:19.924Z,1004.82
2018-12-10T11:48:19.824Z,1004.87
2018-12-10T11:49:19.736Z,1004.88
2018-12-10T11:50:19.807Z,1004.86
2018-12-10T11:51:19.574Z,1004.84
2018-12-10T11:52:19.486Z,1004.79
2018-12-10T11:53:19.401Z,1004.80
2018-12-10T11:54:19.338Z,1004.85
2018-12-10T11:55:19.237Z,1004.90
2018-12-10T11:56:19.149Z,1004.81
2018-12-10T11:57:19.064Z,1004.85
2018-12-10T11:58:18.986Z,1004.85
2018-12-10T11:59:18.900Z,1004.87
2018-12-10T12:00:18.812Z,1004.75
2018-12-10T12:01:18.727Z,1004.79
2018-12-10T12:02:18.652Z,1004.79
2018-12-10T12:03:18.562Z,1004.74
2018-12-10T12:04:18.478Z,1004.76
2018-12-10T12:05:18.388Z,1004.78
2018-12-10T12:06:18.312Z,1004.79
2018-12-10T12:07:18.226Z,1004.77
2018-12-10T12:08:18.137Z,1004.78
2018-12-10T12:09:18.051Z,1004.80